Buoy 41503

sailwx.info

Track history (hours):
 
Tides and Currents Weather Stations Pressure Air Temp Water Temp Dewpoint Dewpoint Depression Visibility Wind Speed Wind Dir Waves Ship Positions

Drifting buoy 41503

Last reported at 2015-Mar-30 02:54 UTC. Time now 2015-Mar-30 09:24 UTC.
Position N 36°54' W 060°43'.

Water temperature 18.7 ° C

Date/timePositionNaut miles runAvg speedWind from/ knotsBaromVisibWave heightAir tempDewpointWater temp
2015-Mar-30 02:54N 36°54' W 060°43'1 1.4 18.7
2015-Mar-30 02:09N 36°54' W 060°42'1 1.5 18.7
2015-Mar-30 01:12N 36°54' W 060°40'1 0.8 18.7
2015-Mar-29 23:36N 36°53' W 060°39'218.7 18.7
2015-Mar-29 23:30N 36°52' W 060°37'0 0.0 18.7
2015-Mar-29 22:22N 36°52' W 060°37'0 3.7 18.8
2015-Mar-29 22:18N 36°52' W 060°37'0 0.0 18.8
2015-Mar-29 22:12N 36°52' W 060°37'3 4.3 18.8
2015-Mar-29 21:28N 36°51' W 060°34'0 0.3
2015-Mar-29 20:43N 36°51' W 060°34'0 3.8 18.8
2015-Mar-29 20:37N 36°51' W 060°33'2 1.5 18.8
2015-Mar-29 19:23N 36°50' W 060°31'0 1.2 18.8
2015-Mar-29 19:19N 36°50' W 060°31'616.8 18.8
2015-Mar-29 18:59N 36°48' W 060°25'0 0.0 18.8
2015-Mar-29 17:44N 36°48' W 060°25'0 0.0 18.9
2015-Mar-29 17:36N 36°48' W 060°25'0 0.0 18.9
2015-Mar-29 15:58N 36°48' W 060°25'1 2.7 18.9
2015-Mar-29 15:37N 36°48' W 060°23'1 1.8 18.9
2015-Mar-29 14:50N 36°48' W 060°22'221.0 18.8
2015-Mar-29 14:43N 36°47' W 060°19'0 0.0 18.9
2015-Mar-29 14:40N 36°47' W 060°19'1 1.9 18.9
2015-Mar-29 13:59N 36°46' W 060°18'1 1.6 18.8
2015-Mar-29 13:09N 36°47' W 060°19'1 1.4 18.8
2015-Mar-29 12:13N 36°46' W 060°18'2 1.8 18.8
2015-Mar-29 11:05N 36°47' W 060°15'2 1.5 18.8
2015-Mar-29 09:27N 36°46' W 060°12'1 2.5 18.8
2015-Mar-29 09:13N 36°46' W 060°13'274.3 18.8
2015-Mar-29 09:11N 36°46' W 060°10'0 0.0 18.8
2015-Mar-29 09:09N 36°46' W 060°10'0 0.0 18.8
2015-Mar-29 07:59N 36°46' W 060°10'0 1.3 18.8
2015-Mar-29 07:52N 36°46' W 060°10'0 1.5 18.8
2015-Mar-29 07:44N 36°46' W 060°10'1 4.4 18.8
2015-Mar-29 07:31N 36°47' W 060°10'143.7 18.8
2015-Mar-29 07:29N 36°46' W 060°09'0 0.0 18.8
2015-Mar-29 06:20N 36°46' W 060°09'1 9.8 18.8
2015-Mar-29 06:11N 36°45' W 060°07'0 0.0 18.8
2015-Mar-29 06:06N 36°45' W 060°07'0 0.0 18.8
2015-Mar-29 04:34N 36°45' W 060°07'221.6 18.8
2015-Mar-29 04:28N 36°44' W 060°05'0 0.0
2015-Mar-29 03:13N 36°44' W 060°05'0 0.0 18.8
2015-Mar-29 02:29N 36°44' W 060°05'1 1.2 18.7
2015-Mar-29 01:38N 36°44' W 060°04'1 6.1 18.7
2015-Mar-29 01:29N 36°43' W 060°03'1 1.9 18.7
2015-Mar-29 00:51N 36°42' W 060°03'0 0.0 18.7
2015-Mar-29 00:48N 36°42' W 060°03'1 1.2 18.7
2015-Mar-28 23:57N 36°42' W 060°02'1 8.8 18.7
2015-Mar-28 23:50N 36°42' W 060°03'2 3.0 18.7
2015-Mar-28 23:09N 36°40' W 060°01'1 1.6 18.7
2015-Mar-28 22:39N 36°41' W 060°01'2 9.6 18.7
2015-Mar-28 22:28N 36°40' W 059°60'1 5.0 18.7
2015-Mar-28 22:13N 36°40' W 060°01'1 1.1 18.7
2015-Mar-28 21:03N 36°40' W 059°60'0 0.0 18.7
2015-Mar-28 20:59N 36°40' W 059°60'0 3.6 18.7
2015-Mar-28 20:52N 36°39' W 059°59'0 0.0 18.7
2015-Mar-28 20:48N 36°39' W 059°59'1 2.5 18.7
2015-Mar-28 20:25N 36°38' W 059°59'0 0.0 18.8
2015-Mar-28 19:34N 36°38' W 059°59'114.5 18.8
2015-Mar-28 19:31N 36°38' W 059°59'0 0.0 18.8
2015-Mar-28 19:21N 36°38' W 059°59'0 0.0 18.8
2015-Mar-28 19:13N 36°38' W 059°59'0 4.9 18.8
2015-Mar-28 19:07N 36°38' W 059°58'3 2.6 18.8
2015-Mar-28 17:56N 36°35' W 059°57'0 0.0 18.8
2015-Mar-28 16:13N 36°35' W 059°57'1 3.2 18.9
2015-Mar-28 15:56N 36°34' W 059°56'1 0.7 18.9
2015-Mar-28 15:03N 36°34' W 059°56'0 0.0 18.9
2015-Mar-28 14:19N 36°34' W 059°56'1 1.3 18.9
2015-Mar-28 13:30N 36°33' W 059°55'0 2.4 18.9
2015-Mar-28 13:21N 36°33' W 059°55'0 0.3 18.9
2015-Mar-28 12:33N 36°33' W 059°55'116.4 18.9
2015-Mar-28 12:29N 36°32' W 059°54'0 0.1 18.9
2015-Mar-28 11:22N 36°32' W 059°54'1 3.1 18.9
2015-Mar-28 11:12N 36°31' W 059°55'1 5.4 18.9
2015-Mar-28 11:04N 36°31' W 059°54'120.7 18.9
2015-Mar-28 11:01N 36°30' W 059°54'0 0.0 18.9
2015-Mar-28 09:57N 36°30' W 059°54'0 1.1 18.9
2015-Mar-28 09:44N 36°30' W 059°54'1 6.8 18.9
2015-Mar-28 09:39N 36°30' W 059°53'0 0.0 18.9
2015-Mar-28 09:29N 36°30' W 059°53'0 0.0 18.9
2015-Mar-28 09:25N 36°30' W 059°53'0 0.0 18.9
2015-Mar-28 09:20N 36°30' W 059°53'1 1.1 18.9
2015-Mar-28 08:18N 36°29' W 059°53'1 4.6 18.9
2015-Mar-28 08:10N 36°29' W 059°53'0 1.7 18.9
2015-Mar-28 08:05N 36°29' W 059°53'0 6.7 18.9
2015-Mar-28 08:02N 36°29' W 059°53'0 0.0 18.9
2015-Mar-28 07:57N 36°29' W 059°53'0 0.0 18.9
2015-Mar-28 07:45N 36°29' W 059°53'116.7 18.9
2015-Mar-28 07:40N 36°28' W 059°53'0 0.0 18.9
2015-Mar-28 06:32N 36°28' W 059°53'213.5 18.9
2015-Mar-28 06:22N 36°27' W 059°51'0 0.0 18.9
2015-Mar-28 06:19N 36°27' W 059°51'0 0.0 18.9
2015-Mar-28 04:47N 36°27' W 059°51'3 1.4 18.9
2015-Mar-28 02:45N 36°24' W 059°48'0 0.2 18.9
2015-Mar-28 01:58N 36°24' W 059°48'0 1.2 18.9
2015-Mar-28 01:50N 36°24' W 059°48'0 0.0 18.9
2015-Mar-28 01:13N 36°24' W 059°48'119.4 18.9
2015-Mar-28 01:10N 36°24' W 059°48'0 0.0 18.9
2015-Mar-28 01:03N 36°24' W 059°48'0 0.0 18.9
2015-Mar-28 00:19N 36°24' W 059°48'0 1.0 18.9
2015-Mar-28 00:12N 36°24' W 059°48'2 2.9 18.9
2015-Mar-27 23:28N 36°22' W 059°46'0 0.0 18.9
2015-Mar-27 21:26N 36°22' W 059°46'0 0.7 18.8
2015-Mar-27 21:05N 36°22' W 059°46'0 0.7 18.8
2015-Mar-27 20:58N 36°22' W 059°46'113.5 18.8
2015-Mar-27 20:54N 36°21' W 059°46'0 0.0 18.8
2015-Mar-27 19:47N 36°21' W 059°46'0 5.1 18.8
2015-Mar-27 19:43N 36°21' W 059°46'0 0.5 18.8
2015-Mar-27 19:24N 36°21' W 059°46'211.3 18.8
2015-Mar-27 19:16N 36°20' W 059°45'0 0.0 18.8
2015-Mar-27 18:07N 36°20' W 059°45'1 0.6 18.8
2015-Mar-27 16:24N 36°19' W 059°45'1 1.2 18.7
2015-Mar-27 15:22N 36°18' W 059°44'0 0.0 18.8
2015-Mar-27 14:38N 36°18' W 059°44'5 6.8 18.9
2015-Mar-27 13:50N 36°16' W 059°37'5 5.9 18.9
2015-Mar-27 12:56N 36°18' W 059°43'5 4.5 18.9
2015-Mar-27 11:45N 36°16' W 059°37'0 0.0 18.9
2015-Mar-27 11:17N 36°16' W 059°37'0 0.0 18.9
2015-Mar-27 10:29N 36°16' W 059°37'0 0.0 18.9
2015-Mar-27 10:09N 36°16' W 059°37'0 0.0 18.9
2015-Mar-26 23:12N 36°16' W 059°37'2 0.9 18.9
2015-Mar-26 21:08N 36°16' W 059°35'1 0.7 19.0
2015-Mar-26 19:55N 36°15' W 059°35'2 0.4 19.2
2015-Mar-26 15:48N 36°14' W 059°33'3 4.0 19.0
2015-Mar-26 14:59N 36°11' W 059°33'0 0.0 18.8
2015-Mar-26 14:10N 36°11' W 059°33'1 0.0 18.7
2015-Mar-24 21:02N 36°12' W 059°34'0 0.0 18.8
2015-Mar-24 19:57N 36°12' W 059°34'1 6.7 18.8
2015-Mar-24 19:51N 36°12' W 059°33'0 0.2 18.8
2015-Mar-24 18:16N 36°12' W 059°33'110.0 18.9
2015-Mar-24 18:12N 36°11' W 059°33'0 0.0 18.9
2015-Mar-24 16:57N 36°11' W 059°33'1 0.5 18.9
2015-Mar-24 14:54N 36°10' W 059°32'2 1.9 18.9
2015-Mar-24 13:57N 36°09' W 059°31'0 0.0 18.9
2015-Mar-24 13:09N 36°09' W 059°31'0 0.0 18.9
2015-Mar-24 10:10N 36°09' W 059°31'0 3.1 18.9
2015-Mar-24 10:05N 36°09' W 059°31'0 0.0 18.9
2015-Mar-24 08:43N 36°09' W 059°31'0 0.3 18.9
2015-Mar-24 07:57N 36°09' W 059°30'0 0.0 18.9
2015-Mar-24 07:12N 36°09' W 059°30'2 0.3 18.9
2015-Mar-24 01:42N 36°08' W 059°29'0 0.0 19.1
2015-Mar-24 01:39N 36°08' W 059°29'1 0.7 19.1
2015-Mar-24 00:55N 36°07' W 059°29'1 0.6 19.1
2015-Mar-23 23:56N 36°07' W 059°29'1 0.8 19.1
2015-Mar-23 23:12N 36°06' W 059°28'1 0.2 19.2
2015-Mar-23 20:10N 36°06' W 059°28'0 0.8 19.2
2015-Mar-23 19:46N 36°05' W 059°28'0 0.4 19.2
2015-Mar-23 18:51N 36°05' W 059°28'1 0.7 19.2
2015-Mar-23 17:09N 36°04' W 059°29'1 0.9 19.2
2015-Mar-23 15:57N 36°03' W 059°29'1 0.9
2015-Mar-23 15:06N 36°03' W 059°29'3 0.6 19.1
2015-Mar-23 10:17N 36°00' W 059°30'0 0.0 18.9
2015-Mar-23 10:08N 36°00' W 059°30'0 0.0 18.9
2015-Mar-23 09:11N 36°00' W 059°30'2 0.5 18.9
2015-Mar-23 05:42N 35°59' W 059°32'3 0.8 18.9
2015-Mar-23 01:58N 35°58' W 059°35'0 0.4 18.8
2015-Mar-23 01:07N 35°57' W 059°36'1 0.4 18.8
2015-Mar-22 22:01N 35°58' W 059°37'0 3.8 19.0
2015-Mar-22 21:57N 35°58' W 059°37'2 1.1 19.0
2015-Mar-22 20:08N 35°59' W 059°39'0 0.1 19.0
2015-Mar-22 18:57N 35°59' W 059°39'5 0.9 19.0
2015-Mar-22 13:55N 35°60' W 059°45'1 0.6 19.0
2015-Mar-22 11:24N 35°59' W 059°47'1 0.6 19.0
2015-Mar-22 09:46N 35°60' W 059°48'3 1.2 19.0
2015-Mar-22 07:12N 35°59' W 059°52'7 1.0 19.0
2015-Mar-21 23:55N 35°55' W 059°59'2 2.5 19.0
2015-Mar-21 22:57N 35°54' W 060°00'3 3.4 19.0
2015-Mar-21 22:12N 35°52' W 060°03'0 0.0 19.0
2015-Mar-21 20:50N 35°52' W 060°03'   19.0
Track history (hours):
 
Tides and Currents Weather Stations Pressure Air Temp Water Temp Dewpoint Dewpoint Depression Visibility Wind Speed Wind Dir Waves Ship Positions

Drifting buoy 41503

Last reported at 2015-Mar-30 02:54 UTC. Time now 2015-Mar-30 09:24 UTC.
Position N 36°54' W 060°43'.

Water temperature 18.7 ° C

Date/timePositionNaut miles runAvg speedWind from/ knotsBaromVisibWave heightAir tempDewpointWater temp
2015-Mar-30 02:54N 36°54' W 060°43'1 1.4 18.7
2015-Mar-30 02:09N 36°54' W 060°42'1 1.5 18.7
2015-Mar-30 01:12N 36°54' W 060°40'1 0.8 18.7
2015-Mar-29 23:36N 36°53' W 060°39'218.7 18.7
2015-Mar-29 23:30N 36°52' W 060°37'0 0.0 18.7
2015-Mar-29 22:22N 36°52' W 060°37'0 3.7 18.8
2015-Mar-29 22:18N 36°52' W 060°37'0 0.0 18.8
2015-Mar-29 22:12N 36°52' W 060°37'3 4.3 18.8
2015-Mar-29 21:28N 36°51' W 060°34'0 0.3
2015-Mar-29 20:43N 36°51' W 060°34'0 3.8 18.8
2015-Mar-29 20:37N 36°51' W 060°33'2 1.5 18.8
2015-Mar-29 19:23N 36°50' W 060°31'0 1.2 18.8
2015-Mar-29 19:19N 36°50' W 060°31'616.8 18.8
2015-Mar-29 18:59N 36°48' W 060°25'0 0.0 18.8
2015-Mar-29 17:44N 36°48' W 060°25'0 0.0 18.9
2015-Mar-29 17:36N 36°48' W 060°25'0 0.0 18.9
2015-Mar-29 15:58N 36°48' W 060°25'1 2.7 18.9
2015-Mar-29 15:37N 36°48' W 060°23'1 1.8 18.9
2015-Mar-29 14:50N 36°48' W 060°22'221.0 18.8
2015-Mar-29 14:43N 36°47' W 060°19'0 0.0 18.9
2015-Mar-29 14:40N 36°47' W 060°19'1 1.9 18.9
2015-Mar-29 13:59N 36°46' W 060°18'1 1.6 18.8
2015-Mar-29 13:09N 36°47' W 060°19'1 1.4 18.8
2015-Mar-29 12:13N 36°46' W 060°18'2 1.8 18.8
2015-Mar-29 11:05N 36°47' W 060°15'2 1.5 18.8
2015-Mar-29 09:27N 36°46' W 060°12'1 2.5 18.8
2015-Mar-29 09:13N 36°46' W 060°13'274.3 18.8
2015-Mar-29 09:11N 36°46' W 060°10'0 0.0 18.8
2015-Mar-29 09:09N 36°46' W 060°10'0 0.0 18.8
2015-Mar-29 07:59N 36°46' W 060°10'0 1.3 18.8
2015-Mar-29 07:52N 36°46' W 060°10'0 1.5 18.8
2015-Mar-29 07:44N 36°46' W 060°10'1 4.4 18.8
2015-Mar-29 07:31N 36°47' W 060°10'143.7 18.8
2015-Mar-29 07:29N 36°46' W 060°09'0 0.0 18.8
2015-Mar-29 06:20N 36°46' W 060°09'1 9.8 18.8
2015-Mar-29 06:11N 36°45' W 060°07'0 0.0 18.8
2015-Mar-29 06:06N 36°45' W 060°07'0 0.0 18.8
2015-Mar-29 04:34N 36°45' W 060°07'221.6 18.8
2015-Mar-29 04:28N 36°44' W 060°05'0 0.0
2015-Mar-29 03:13N 36°44' W 060°05'0 0.0 18.8
2015-Mar-29 02:29N 36°44' W 060°05'1 1.2 18.7
2015-Mar-29 01:38N 36°44' W 060°04'1 6.1 18.7
2015-Mar-29 01:29N 36°43' W 060°03'1 1.9 18.7
2015-Mar-29 00:51N 36°42' W 060°03'0 0.0 18.7
2015-Mar-29 00:48N 36°42' W 060°03'1 1.2 18.7
2015-Mar-28 23:57N 36°42' W 060°02'1 8.8 18.7
2015-Mar-28 23:50N 36°42' W 060°03'2 3.0 18.7
2015-Mar-28 23:09N 36°40' W 060°01'1 1.6 18.7
2015-Mar-28 22:39N 36°41' W 060°01'2 9.6 18.7
2015-Mar-28 22:28N 36°40' W 059°60'1 5.0 18.7
2015-Mar-28 22:13N 36°40' W 060°01'1 1.1 18.7
2015-Mar-28 21:03N 36°40' W 059°60'0 0.0 18.7
2015-Mar-28 20:59N 36°40' W 059°60'0 3.6 18.7
2015-Mar-28 20:52N 36°39' W 059°59'0 0.0 18.7
2015-Mar-28 20:48N 36°39' W 059°59'1 2.5 18.7
2015-Mar-28 20:25N 36°38' W 059°59'0 0.0 18.8
2015-Mar-28 19:34N 36°38' W 059°59'114.5 18.8
2015-Mar-28 19:31N 36°38' W 059°59'0 0.0 18.8
2015-Mar-28 19:21N 36°38' W 059°59'0 0.0 18.8
2015-Mar-28 19:13N 36°38' W 059°59'0 4.9 18.8
2015-Mar-28 19:07N 36°38' W 059°58'3 2.6 18.8
2015-Mar-28 17:56N 36°35' W 059°57'0 0.0 18.8
2015-Mar-28 16:13N 36°35' W 059°57'1 3.2 18.9
2015-Mar-28 15:56N 36°34' W 059°56'1 0.7 18.9
2015-Mar-28 15:03N 36°34' W 059°56'0 0.0 18.9
2015-Mar-28 14:19N 36°34' W 059°56'1 1.3 18.9
2015-Mar-28 13:30N 36°33' W 059°55'0 2.4 18.9
2015-Mar-28 13:21N 36°33' W 059°55'0 0.3 18.9
2015-Mar-28 12:33N 36°33' W 059°55'116.4 18.9
2015-Mar-28 12:29N 36°32' W 059°54'0 0.1 18.9
2015-Mar-28 11:22N 36°32' W 059°54'1 3.1 18.9
2015-Mar-28 11:12N 36°31' W 059°55'1 5.4 18.9
2015-Mar-28 11:04N 36°31' W 059°54'120.7 18.9
2015-Mar-28 11:01N 36°30' W 059°54'0 0.0 18.9
2015-Mar-28 09:57N 36°30' W 059°54'0 1.1 18.9
2015-Mar-28 09:44N 36°30' W 059°54'1 6.8 18.9
2015-Mar-28 09:39N 36°30' W 059°53'0 0.0 18.9
2015-Mar-28 09:29N 36°30' W 059°53'0 0.0 18.9
2015-Mar-28 09:25N 36°30' W 059°53'0 0.0 18.9
2015-Mar-28 09:20N 36°30' W 059°53'1 1.1 18.9
2015-Mar-28 08:18N 36°29' W 059°53'1 4.6 18.9
2015-Mar-28 08:10N 36°29' W 059°53'0 1.7 18.9
2015-Mar-28 08:05N 36°29' W 059°53'0 6.7 18.9
2015-Mar-28 08:02N 36°29' W 059°53'0 0.0 18.9
2015-Mar-28 07:57N 36°29' W 059°53'0 0.0 18.9
2015-Mar-28 07:45N 36°29' W 059°53'116.7 18.9
2015-Mar-28 07:40N 36°28' W 059°53'0 0.0 18.9
2015-Mar-28 06:32N 36°28' W 059°53'213.5 18.9
2015-Mar-28 06:22N 36°27' W 059°51'0 0.0 18.9
2015-Mar-28 06:19N 36°27' W 059°51'0 0.0 18.9
2015-Mar-28 04:47N 36°27' W 059°51'3 1.4 18.9
2015-Mar-28 02:45N 36°24' W 059°48'0 0.2 18.9
2015-Mar-28 01:58N 36°24' W 059°48'0 1.2 18.9
2015-Mar-28 01:50N 36°24' W 059°48'0 0.0 18.9
2015-Mar-28 01:13N 36°24' W 059°48'119.4 18.9
2015-Mar-28 01:10N 36°24' W 059°48'0 0.0 18.9
2015-Mar-28 01:03N 36°24' W 059°48'0 0.0 18.9
2015-Mar-28 00:19N 36°24' W 059°48'0 1.0 18.9
2015-Mar-28 00:12N 36°24' W 059°48'2 2.9 18.9
2015-Mar-27 23:28N 36°22' W 059°46'0 0.0 18.9
2015-Mar-27 21:26N 36°22' W 059°46'0 0.7 18.8
2015-Mar-27 21:05N 36°22' W 059°46'0 0.7 18.8
2015-Mar-27 20:58N 36°22' W 059°46'113.5 18.8
2015-Mar-27 20:54N 36°21' W 059°46'0 0.0 18.8
2015-Mar-27 19:47N 36°21' W 059°46'0 5.1 18.8
2015-Mar-27 19:43N 36°21' W 059°46'0 0.5 18.8
2015-Mar-27 19:24N 36°21' W 059°46'211.3 18.8
2015-Mar-27 19:16N 36°20' W 059°45'0 0.0 18.8
2015-Mar-27 18:07N 36°20' W 059°45'1 0.6 18.8
2015-Mar-27 16:24N 36°19' W 059°45'1 1.2 18.7
2015-Mar-27 15:22N 36°18' W 059°44'0 0.0 18.8
2015-Mar-27 14:38N 36°18' W 059°44'5 6.8 18.9
2015-Mar-27 13:50N 36°16' W 059°37'5 5.9 18.9
2015-Mar-27 12:56N 36°18' W 059°43'5 4.5 18.9
2015-Mar-27 11:45N 36°16' W 059°37'0 0.0 18.9
2015-Mar-27 11:17N 36°16' W 059°37'0 0.0 18.9
2015-Mar-27 10:29N 36°16' W 059°37'0 0.0 18.9
2015-Mar-27 10:09N 36°16' W 059°37'0 0.0 18.9
2015-Mar-26 23:12N 36°16' W 059°37'2 0.9 18.9
2015-Mar-26 21:08N 36°16' W 059°35'1 0.7 19.0
2015-Mar-26 19:55N 36°15' W 059°35'2 0.4 19.2
2015-Mar-26 15:48N 36°14' W 059°33'3 4.0 19.0
2015-Mar-26 14:59N 36°11' W 059°33'0 0.0 18.8
2015-Mar-26 14:10N 36°11' W 059°33'1 0.0 18.7
2015-Mar-24 21:02N 36°12' W 059°34'0 0.0 18.8
2015-Mar-24 19:57N 36°12' W 059°34'1 6.7 18.8
2015-Mar-24 19:51N 36°12' W 059°33'0 0.2 18.8
2015-Mar-24 18:16N 36°12' W 059°33'110.0 18.9
2015-Mar-24 18:12N 36°11' W 059°33'0 0.0 18.9
2015-Mar-24 16:57N 36°11' W 059°33'1 0.5 18.9
2015-Mar-24 14:54N 36°10' W 059°32'2 1.9 18.9
2015-Mar-24 13:57N 36°09' W 059°31'0 0.0 18.9
2015-Mar-24 13:09N 36°09' W 059°31'0 0.0 18.9
2015-Mar-24 10:10N 36°09' W 059°31'0 3.1 18.9
2015-Mar-24 10:05N 36°09' W 059°31'0 0.0 18.9
2015-Mar-24 08:43N 36°09' W 059°31'0 0.3 18.9
2015-Mar-24 07:57N 36°09' W 059°30'0 0.0 18.9
2015-Mar-24 07:12N 36°09' W 059°30'2 0.3 18.9
2015-Mar-24 01:42N 36°08' W 059°29'0 0.0 19.1
2015-Mar-24 01:39N 36°08' W 059°29'1 0.7 19.1
2015-Mar-24 00:55N 36°07' W 059°29'1 0.6 19.1
2015-Mar-23 23:56N 36°07' W 059°29'1 0.8 19.1
2015-Mar-23 23:12N 36°06' W 059°28'1 0.2 19.2
2015-Mar-23 20:10N 36°06' W 059°28'0 0.8 19.2
2015-Mar-23 19:46N 36°05' W 059°28'0 0.4 19.2
2015-Mar-23 18:51N 36°05' W 059°28'1 0.7 19.2
2015-Mar-23 17:09N 36°04' W 059°29'1 0.9 19.2
2015-Mar-23 15:57N 36°03' W 059°29'1 0.9
2015-Mar-23 15:06N 36°03' W 059°29'3 0.6 19.1
2015-Mar-23 10:17N 36°00' W 059°30'0 0.0 18.9
2015-Mar-23 10:08N 36°00' W 059°30'0 0.0 18.9
2015-Mar-23 09:11N 36°00' W 059°30'2 0.5 18.9
2015-Mar-23 05:42N 35°59' W 059°32'3 0.8 18.9
2015-Mar-23 01:58N 35°58' W 059°35'0 0.4 18.8
2015-Mar-23 01:07N 35°57' W 059°36'1 0.4 18.8
2015-Mar-22 22:01N 35°58' W 059°37'0 3.8 19.0
2015-Mar-22 21:57N 35°58' W 059°37'2 1.1 19.0
2015-Mar-22 20:08N 35°59' W 059°39'0 0.1 19.0
2015-Mar-22 18:57N 35°59' W 059°39'5 0.9 19.0
2015-Mar-22 13:55N 35°60' W 059°45'1 0.6 19.0
2015-Mar-22 11:24N 35°59' W 059°47'1 0.6 19.0
2015-Mar-22 09:46N 35°60' W 059°48'3 1.2 19.0
2015-Mar-22 07:12N 35°59' W 059°52'7 1.0 19.0
2015-Mar-21 23:55N 35°55' W 059°59'2 2.5 19.0
2015-Mar-21 22:57N 35°54' W 060°00'3 3.4 19.0
2015-Mar-21 22:12N 35°52' W 060°03'0 0.0 19.0
2015-Mar-21 20:50N 35°52' W 060°03'   19.0

Dump ship's entire track history